Time;durP1;ratioP1;P1;durP2;ratioP2;P2;SDS_P1;SDS_P2;PMS_P1;PMS_P2;Temp;Humidity;BMP_temperature;BMP_pressure;BME280_temperature;BME280_humidity;BME280_pressure;Samples;Min_cycle;Max_cycle;Signal;HPM_P1;HPM_P2
2022/07/24 00:00:39;;;;;;;8.3;6.6;;;;;;;;;;;;;
2022/07/24 00:03:05;;;;;;;8.6;6.6;;;;;;;;;;;;;
2022/07/24 00:05:30;;;;;;;10.6;6.8;;;;;;;;;;;;;
2022/07/24 00:07:56;;;;;;;7.5;6.4;;;;;;;;;;;;;
2022/07/24 00:10:21;;;;;;;6.9;6.2;;;;;;;;;;;;;
2022/07/24 00:12:48;;;;;;;8.2;6.4;;;;;;;;;;;;;
2022/07/24 00:15:12;;;;;;;7.6;6.7;;;;;;;;;;;;;
2022/07/24 00:17:38;;;;;;;7.3;6.6;;;;;;;;;;;;;
2022/07/24 00:20:03;;;;;;;7.6;6.4;;;;;;;;;;;;;
2022/07/24 00:22:30;;;;;;;7.3;6.6;;;;;;;;;;;;;
2022/07/24 00:24:55;;;;;;;9.6;7.2;;;;;;;;;;;;;
2022/07/24 00:27:20;;;;;;;7.9;7.1;;;;;;;;;;;;;
2022/07/24 00:29:45;;;;;;;8.3;7.4;;;;;;;;;;;;;
2022/07/24 00:32:12;;;;;;;9.1;7.4;;;;;;;;;;;;;
2022/07/24 00:34:38;;;;;;;7.3;6.3;;;;;;;;;;;;;
2022/07/24 00:37:03;;;;;;;7;6.3;;;;;;;;;;;;;
2022/07/24 00:39:28;;;;;;;7.3;6.6;;;;;;;;;;;;;
2022/07/24 00:41:56;;;;;;;7.4;6.6;;;;;;;;;;;;;
2022/07/24 00:44:21;;;;;;;7.5;6.5;;;;;;;;;;;;;
2022/07/24 00:46:45;;;;;;;8.4;6.4;;;;;;;;;;;;;
2022/07/24 00:49:10;;;;;;;7.2;6.5;;;;;;;;;;;;;
2022/07/24 00:51:36;;;;;;;8.6;6.9;;;;;;;;;;;;;
2022/07/24 00:54:01;;;;;;;7.6;6.6;;;;;;;;;;;;;
2022/07/24 00:56:26;;;;;;;9;6.8;;;;;;;;;;;;;
2022/07/24 00:58:51;;;;;;;7.5;6.8;;;;;;;;;;;;;
2022/07/24 01:01:17;;;;;;;7.7;6.8;;;;;;;;;;;;;
2022/07/24 01:03:41;;;;;;;8.4;6.8;;;;;;;;;;;;;
2022/07/24 01:06:06;;;;;;;7.1;6.4;;;;;;;;;;;;;
2022/07/24 01:08:32;;;;;;;7.8;7;;;;;;;;;;;;;
2022/07/24 01:10:57;;;;;;;8.5;6.9;;;;;;;;;;;;;
2022/07/24 01:13:24;;;;;;;8.5;6.8;;;;;;;;;;;;;
2022/07/24 01:15:49;;;;;;;7.5;6.8;;;;;;;;;;;;;
2022/07/24 01:18:14;;;;;;;8.7;6.5;;;;;;;;;;;;;
2022/07/24 01:20:39;;;;;;;8.8;6.7;;;;;;;;;;;;;
2022/07/24 01:23:05;;;;;;;7.4;6.6;;;;;;;;;;;;;
2022/07/24 01:25:30;;;;;;;8.2;7;;;;;;;;;;;;;
2022/07/24 01:27:57;;;;;;;7.8;7;;;;;;;;;;;;;
2022/07/24 01:30:22;;;;;;;8.5;6.9;;;;;;;;;;;;;
2022/07/24 01:32:47;;;;;;;8.4;6.9;;;;;;;;;;;;;
2022/07/24 01:35:12;;;;;;;7.9;7;;;;;;;;;;;;;
2022/07/24 01:37:37;;;;;;;8.2;7.4;;;;;;;;;;;;;
2022/07/24 01:40:02;;;;;;;9.4;7.7;;;;;;;;;;;;;
2022/07/24 01:42:28;;;;;;;8.5;7;;;;;;;;;;;;;
2022/07/24 01:44:53;;;;;;;9.7;7.5;;;;;;;;;;;;;
2022/07/24 01:47:18;;;;;;;10;8.2;;;;;;;;;;;;;
2022/07/24 01:49:45;;;;;;;9.2;7.4;;;;;;;;;;;;;
2022/07/24 01:52:10;;;;;;;9.7;7.9;;;;;;;;;;;;;
2022/07/24 01:54:36;;;;;;;8.2;7.4;;;;;;;;;;;;;
2022/07/24 01:57:01;;;;;;;7.9;7.1;;;;;;;;;;;;;
2022/07/24 01:59:27;;;;;;;8;7.2;;;;;;;;;;;;;
2022/07/24 02:01:52;;;;;;;7.9;7.1;;;;;;;;;;;;;
2022/07/24 02:04:17;;;;;;;8.3;7.4;;;;;;;;;;;;;
2022/07/24 02:06:42;;;;;;;7.8;6.9;;;;;;;;;;;;;
2022/07/24 02:09:09;;;;;;;7.7;7;;;;;;;;;;;;;
2022/07/24 02:11:34;;;;;;;7.8;7;;;;;;;;;;;;;
2022/07/24 02:14:00;;;;;;;7.9;7.1;;;;;;;;;;;;;
2022/07/24 02:16:24;;;;;;;7.4;6.6;;;;;;;;;;;;;
2022/07/24 02:18:51;;;;;;;8.1;6.9;;;;;;;;;;;;;
2022/07/24 02:21:16;;;;;;;8.1;6.9;;;;;;;;;;;;;
2022/07/24 02:23:42;;;;;;;8;7.2;;;;;;;;;;;;;
2022/07/24 02:26:07;;;;;;;7.7;6.8;;;;;;;;;;;;;
2022/07/24 02:28:33;;;;;;;8.7;7.1;;;;;;;;;;;;;
2022/07/24 02:30:58;;;;;;;7.3;6.5;;;;;;;;;;;;;
2022/07/24 02:33:25;;;;;;;7.4;6.7;;;;;;;;;;;;;
2022/07/24 02:35:49;;;;;;;7.7;6.5;;;;;;;;;;;;;
2022/07/24 02:38:17;;;;;;;8.1;7.3;;;;;;;;;;;;;
2022/07/24 02:40:42;;;;;;;8.1;7;;;;;;;;;;;;;
2022/07/24 02:43:07;;;;;;;8.5;7.1;;;;;;;;;;;;;
2022/07/24 02:45:32;;;;;;;7.8;7;;;;;;;;;;;;;
2022/07/24 02:47:59;;;;;;;8.5;7.1;;;;;;;;;;;;;
2022/07/24 02:50:24;;;;;;;8.7;7.4;;;;;;;;;;;;;
2022/07/24 02:52:52;;;;;;;8.3;7.3;;;;;;;;;;;;;
2022/07/24 02:55:17;;;;;;;10.4;7.3;;;;;;;;;;;;;
2022/07/24 02:57:42;;;;;;;8;7.2;;;;;;;;;;;;;
2022/07/24 03:00:08;;;;;;;8.2;7.4;;;;;;;;;;;;;
2022/07/24 03:02:33;;;;;;;8.7;7.2;;;;;;;;;;;;;
2022/07/24 03:04:58;;;;;;;7.9;7.1;;;;;;;;;;;;;
2022/07/24 03:07:24;;;;;;;13.1;7.6;;;;;;;;;;;;;
2022/07/24 03:09:49;;;;;;;8.9;7.4;;;;;;;;;;;;;
2022/07/24 03:12:16;;;;;;;9.3;7.7;;;;;;;;;;;;;
2022/07/24 03:14:41;;;;;;;8.6;7.1;;;;;;;;;;;;;
2022/07/24 03:17:09;;;;;;;8.1;7.2;;;;;;;;;;;;;
2022/07/24 03:19:34;;;;;;;8.3;7.5;;;;;;;;;;;;;
2022/07/24 03:22:01;;;;;;;8;7.2;;;;;;;;;;;;;
2022/07/24 03:24:26;;;;;;;8.1;7.3;;;;;;;;;;;;;
2022/07/24 03:26:52;;;;;;;8.9;7.6;;;;;;;;;;;;;
2022/07/24 03:29:17;;;;;;;9;8.1;;;;;;;;;;;;;
2022/07/24 03:31:42;;;;;;;8;7.2;;;;;;;;;;;;;
2022/07/24 03:34:07;;;;;;;8;7;;;;;;;;;;;;;
2022/07/24 03:36:34;;;;;;;8.4;7.5;;;;;;;;;;;;;
2022/07/24 03:38:59;;;;;;;8.7;7.3;;;;;;;;;;;;;
2022/07/24 03:41:24;;;;;;;8;7.2;;;;;;;;;;;;;
2022/07/24 03:43:49;;;;;;;8.7;7;;;;;;;;;;;;;
2022/07/24 03:46:16;;;;;;;9;7.6;;;;;;;;;;;;;
2022/07/24 03:48:41;;;;;;;8.7;7.3;;;;;;;;;;;;;
2022/07/24 03:51:07;;;;;;;8.4;7.3;;;;;;;;;;;;;
2022/07/24 03:53:32;;;;;;;8.5;7.6;;;;;;;;;;;;;
2022/07/24 03:55:58;;;;;;;9.5;7.3;;;;;;;;;;;;;
2022/07/24 03:58:23;;;;;;;7.4;6.7;;;;;;;;;;;;;
2022/07/24 04:02:34;;;;;;;8.1;7.1;;;;;;;19.13;88.69629;942.0203;;;;
2022/07/24 04:05:03;;;;;;;9.2;7.9;;;;;;;19.12;88.625;942.0034;;;;
2022/07/24 04:07:29;;;;;;;10.3;7.5;;;;;;;19.02;88.90527;942.1494;;;;
2022/07/24 04:10:01;;;;;;;8.2;7.4;;;;;;;18.99;89.4707;942.1136;;;;
2022/07/24 04:12:26;;;;;;;9.6;8.6;;;;;;;18.96;89.68848;942.1414;;;;
2022/07/24 04:14:57;;;;;;;8.8;7.9;;;;;;;18.95;89.74219;942.2134;;;;
2022/07/24 04:17:22;;;;;;;9;8.1;;;;;;;18.94;89.76367;942.2361;;;;
2022/07/24 04:19:50;;;;;;;9.3;8;;;;;;;18.84;90.1748;942.2353;;;;
2022/07/24 04:22:15;;;;;;;8.4;7.5;;;;;;;18.91;89.94434;942.2754;;;;
2022/07/24 04:24:42;;;;;;;8.6;7.7;;;;;;;18.97;89.71289;942.2857;;;;
2022/07/24 04:27:07;;;;;;;8.9;7.7;;;;;;;18.97;89.85059;942.2809;;;;
2022/07/24 04:29:34;;;;;;;8.4;7.6;;;;;;;18.8;90.88867;942.3083;;;;
2022/07/24 04:31:59;;;;;;;8.7;7.5;;;;;;;18.75;91.22656;942.3253;;;;
2022/07/24 04:34:27;;;;;;;8.6;7.7;;;;;;;18.79;90.86133;942.2819;;;;
2022/07/24 04:36:52;;;;;;;10.1;7.8;;;;;;;18.88;90.4043;942.2719;;;;
2022/07/24 04:39:20;;;;;;;9.4;7.9;;;;;;;18.88;90.13672;942.3049;;;;
2022/07/24 04:41:45;;;;;;;9.7;7.5;;;;;;;18.69;91.66699;942.2811;;;;
2022/07/24 04:44:15;;;;;;;9.8;7.3;;;;;;;18.73;92.12988;942.3328;;;;
2022/07/24 04:46:46;;;;;;;9;7.4;;;;;;;18.85;91.47949;942.2958;;;;
2022/07/24 04:49:15;;;;;;;8.2;7.3;;;;;;;18.81;91.09961;942.3131;;;;
2022/07/24 04:51:40;;;;;;;8;7.2;;;;;;;18.97;90.17676;942.2914;;;;
2022/07/24 04:54:07;;;;;;;8.5;7.5;;;;;;;18.93;90.25293;942.2477;;;;
2022/07/24 04:56:32;;;;;;;9.1;7.3;;;;;;;19.06;89.99707;942.3031;;;;
2022/07/24 04:59:01;;;;;;;10.1;7.9;;;;;;;19.08;89.2793;942.2592;;;;
2022/07/24 05:01:25;;;;;;;8.7;7.3;;;;;;;19.12;89.34668;942.2439;;;;
2022/07/24 05:03:56;;;;;;;10.3;7.2;;;;;;;19.25;88.90625;942.2629;;;;
2022/07/24 05:06:19;;;;;;;9.2;7.3;;;;;;;19.3;88.37988;942.2921;;;;
2022/07/24 05:08:46;;;;;;;8.8;7;;;;;;;19.34;88.24902;942.2905;;;;
2022/07/24 05:11:11;;;;;;;8.7;7.1;;;;;;;19.38;87.79004;942.2963;;;;
2022/07/24 05:13:38;;;;;;;9.7;7.4;;;;;;;19.35;88.27441;942.3113;;;;
2022/07/24 05:16:07;;;;;;;7.6;6.8;;;;;;;19.46;87.13184;942.27;;;;
2022/07/24 05:18:35;;;;;;;9;6.6;;;;;;;19.46;86.41992;942.274;;;;
2022/07/24 05:21:00;;;;;;;7.4;6.7;;;;;;;19.72;85.81738;942.2125;;;;
2022/07/24 05:23:28;;;;;;;7.8;6.5;;;;;;;20.49;82.38281;942.2601;;;;
2022/07/24 05:25:53;;;;;;;7.4;6.3;;;;;;;21.36;77.875;942.2542;;;;
2022/07/24 05:28:20;;;;;;;7.7;6.4;;;;;;;21.37;77.71094;942.2079;;;;
2022/07/24 05:30:45;;;;;;;6.6;5.9;;;;;;;21.6;75.51563;942.1738;;;;
2022/07/24 05:33:11;;;;;;;6.7;5.9;;;;;;;21.92;76.09766;942.1761;;;;
2022/07/24 05:35:37;;;;;;;6.6;5.6;;;;;;;22.99;71.44141;942.149;;;;
2022/07/24 05:38:03;;;;;;;8.1;5.7;;;;;;;23.84;67.6123;942.1641;;;;
2022/07/24 05:40:28;;;;;;;6.9;6.2;;;;;;;24.64;64.78711;942.1603;;;;
2022/07/24 05:42:55;;;;;;;6.9;6.1;;;;;;;24.87;63.73438;942.163;;;;
2022/07/24 05:45:20;;;;;;;6.4;5.8;;;;;;;25.33;62.47754;942.1866;;;;
2022/07/24 05:47:49;;;;;;;6;5.4;;;;;;;25.36;63.92188;942.1089;;;;
2022/07/24 05:50:14;;;;;;;6.3;5.3;;;;;;;25.82;61.11523;942.0861;;;;
2022/07/24 05:52:40;;;;;;;6;5.4;;;;;;;25.95;60.22266;942.1442;;;;
2022/07/24 05:55:06;;;;;;;6.1;5.5;;;;;;;26.5;57.5498;942.1346;;;;
2022/07/24 05:57:34;;;;;;;5.7;5.2;;;;;;;26.83;55.7793;942.0916;;;;
2022/07/24 05:59:59;;;;;;;6.1;5.4;;;;;;;26.32;57.05469;942.0645;;;;
2022/07/24 06:02:27;;;;;;;6;5.4;;;;;;;27.13;57.00195;942.0323;;;;
2022/07/24 06:04:52;;;;;;;6.1;4.8;;;;;;;27.81;53.3125;942.0273;;;;
2022/07/24 06:07:21;;;;;;;5.8;4.6;;;;;;;28.27;52.52246;941.9822;;;;
2022/07/24 06:09:46;;;;;;;5.3;4.8;;;;;;;28.75;52.36523;942.0474;;;;
2022/07/24 06:12:14;;;;;;;6.4;5.1;;;;;;;29.42;48.84375;942.0478;;;;
2022/07/24 06:14:39;;;;;;;5;4.6;;;;;;;29.84;47.21973;942.0488;;;;
2022/07/24 06:17:09;;;;;;;5.4;4.9;;;;;;;30.23;47.38086;941.9958;;;;
2022/07/24 06:19:34;;;;;;;5.9;5.3;;;;;;;30.15;47.02539;941.9952;;;;
2022/07/24 06:21:59;;;;;;;5.4;4.9;;;;;;;30.54;47.55664;941.9509;;;;
2022/07/24 06:24:25;;;;;;;5.9;5.3;;;;;;;30.96;44.92188;941.9066;;;;
2022/07/24 06:26:50;;;;;;;5.7;5.1;;;;;;;30.06;48.79492;941.9653;;;;
2022/07/24 06:29:17;;;;;;;6.1;5.1;;;;;;;31.18;45.76953;941.8669;;;;
2022/07/24 06:31:42;;;;;;;5.4;4.9;;;;;;;31.8;44.2627;941.8376;;;;
2022/07/24 06:34:10;;;;;;;5.3;4.8;;;;;;;32.03;44.0332;941.8365;;;;
2022/07/24 06:36:35;;;;;;;5.7;4.9;;;;;;;32.64;43.34766;941.8183;;;;
2022/07/24 06:39:01;;;;;;;5.2;4.6;;;;;;;33.16;42.1123;941.883;;;;
2022/07/24 06:41:26;;;;;;;5;4.6;;;;;;;33.13;41.43652;941.9272;;;;
2022/07/24 06:43:54;;;;;;;5.2;4.7;;;;;;;32.93;40.57715;941.8492;;;;
2022/07/24 06:46:19;;;;;;;5.2;4.7;;;;;;;31.44;43.4375;941.8317;;;;
2022/07/24 06:48:44;;;;;;;5.2;4.7;;;;;;;32.11;42.65039;941.7933;;;;
2022/07/24 06:51:10;;;;;;;5.4;4.7;;;;;;;31.85;43.37988;941.7683;;;;
2022/07/24 06:53:36;;;;;;;5.4;4.9;;;;;;;32.31;42.1543;941.7056;;;;
2022/07/24 06:56:00;;;;;;;5.3;4.8;;;;;;;32.7;43.24512;941.7153;;;;
2022/07/24 06:58:30;;;;;;;5.3;4.3;;;;;;;33.12;41.20801;941.7827;;;;
2022/07/24 07:00:55;;;;;;;5.1;4.7;;;;;;;32.25;41.08105;941.7023;;;;
2022/07/24 07:03:20;;;;;;;4.8;4.4;;;;;;;32.22;41.38965;941.6691;;;;
2022/07/24 07:05:45;;;;;;;5.2;4.8;;;;;;;33.53;40.16309;941.7159;;;;
2022/07/24 07:08:13;;;;;;;4.9;4.4;;;;;;;32.63;40.71875;941.6742;;;;
2022/07/24 07:10:38;;;;;;;5;4.6;;;;;;;32.64;41.0918;941.5781;;;;
2022/07/24 07:13:05;;;;;;;5.4;4.9;;;;;;;32.81;40.1709;941.601;;;;
2022/07/24 07:15:34;;;;;;;5;4.6;;;;;;;33.97;38.78027;941.6208;;;;
2022/07/24 07:17:59;;;;;;;7;5;;;;;;;33.39;38.63477;941.615;;;;
2022/07/24 07:20:26;;;;;;;5;4.6;;;;;;;33.19;40.61328;941.6094;;;;
2022/07/24 07:22:51;;;;;;;5.5;5;;;;;;;34.7;38.31348;941.6052;;;;
2022/07/24 07:25:18;;;;;;;5.1;4.6;;;;;;;35.31;37.12012;941.5627;;;;
2022/07/24 07:27:43;;;;;;;5.4;4.9;;;;;;;35.54;36.17285;941.5471;;;;
2022/07/24 07:30:12;;;;;;;6;5.4;;;;;;;35.54;36.02734;941.5917;;;;
2022/07/24 07:32:37;;;;;;;5.4;4.9;;;;;;;35.06;36.44824;941.5948;;;;
2022/07/24 07:35:03;;;;;;;5.5;4.8;;;;;;;34.3;38.19434;941.5683;;;;
2022/07/24 07:37:28;;;;;;;5.7;5.2;;;;;;;34.84;36.39453;941.5769;;;;
2022/07/24 07:39:57;;;;;;;5.2;4.7;;;;;;;35.3;36.00879;941.5873;;;;
2022/07/24 07:42:20;;;;;;;7.4;4.9;;;;;;;35.91;34.19629;941.5825;;;;
2022/07/24 07:44:49;;;;;;;5.3;4.8;;;;;;;32.75;39.96191;941.5388;;;;
2022/07/24 07:47:13;;;;;;;5.2;4.7;;;;;;;34.78;37.23438;941.5753;;;;
2022/07/24 07:49:41;;;;;;;5.1;4.6;;;;;;;35.51;34.74512;941.5591;;;;
2022/07/24 07:52:06;;;;;;;6.6;5.1;;;;;;;35.46;36.1416;941.5428;;;;
2022/07/24 07:54:31;;;;;;;4.9;4.4;;;;;;;36.32;34.22656;941.5567;;;;
2022/07/24 07:56:59;;;;;;;5.5;4.9;;;;;;;36.05;33.12891;941.5831;;;;
2022/07/24 07:59:24;;;;;;;6.9;5.2;;;;;;;36.13;35.55371;941.5274;;;;
2022/07/24 08:01:53;;;;;;;5.4;4.9;;;;;;;36.72;34.31641;941.5797;;;;
2022/07/24 08:04:18;;;;;;;5;4.5;;;;;;;37.19;32.4248;941.5411;;;;
2022/07/24 08:06:43;;;;;;;5.3;4.8;;;;;;;37.17;33.27148;941.5634;;;;
2022/07/24 08:09:08;;;;;;;6.1;5.1;;;;;;;37.38;32.92285;941.5906;;;;
2022/07/24 08:11:34;;;;;;;5.3;4.8;;;;;;;37.21;33.72168;941.558;;;;
2022/07/24 08:13:59;;;;;;;5.2;4.8;;;;;;;36.51;34.13184;941.5911;;;;
2022/07/24 08:16:24;;;;;;;5.8;4.8;;;;;;;37.01;34.33789;941.5645;;;;
2022/07/24 08:18:52;;;;;;;5;4.6;;;;;;;37.68;33.04199;941.5803;;;;
2022/07/24 08:21:18;;;;;;;6;4.8;;;;;;;37.77;32.57422;941.5416;;;;
2022/07/24 08:23:44;;;;;;;4.5;4.1;;;;;;;35.65;35.34766;941.4975;;;;
2022/07/24 08:26:09;;;;;;;6.5;5;;;;;;;37.14;33.5957;941.4753;;;;
2022/07/24 08:28:39;;;;;;;17.8;5.4;;;;;;;38.06;31.64746;941.4225;;;;
2022/07/24 08:31:04;;;;;;;5;4.6;;;;;;;39.09;30.46484;941.5261;;;;
2022/07/24 08:33:31;;;;;;;5.6;5.1;;;;;;;39.24;29.93945;941.4944;;;;
2022/07/24 08:35:56;;;;;;;5.1;4.6;;;;;;;36.7;33.76953;941.4188;;;;
2022/07/24 08:38:23;;;;;;;5.6;5.1;;;;;;;34.57;38.53125;941.4341;;;;
2022/07/24 08:40:48;;;;;;;5;4.5;;;;;;;37.33;32.5918;941.3975;;;;
2022/07/24 08:43:13;;;;;;;5.1;4.6;;;;;;;38.34;32.48145;941.4994;;;;
2022/07/24 08:45:41;;;;;;;5.3;4.8;;;;;;;37.69;32.37402;941.4495;;;;
2022/07/24 08:48:06;;;;;;;5;4.6;;;;;;;39.03;31.22754;941.467;;;;
2022/07/24 08:50:36;;;;;;;5.5;5;;;;;;;38.68;30.71777;941.4414;;;;
2022/07/24 08:53:06;;;;;;;6.1;5.1;;;;;;;37.33;34.09473;941.4622;;;;
2022/07/24 08:55:30;;;;;;;5.7;5.2;;;;;;;37.1;35.53223;941.4341;;;;
2022/07/24 08:57:59;;;;;;;5.7;5.1;;;;;;;38.39;32.80078;941.4639;;;;
2022/07/24 09:00:26;;;;;;;5.5;5;;;;;;;37.49;34.54395;941.4471;;;;
2022/07/24 09:02:51;;;;;;;5.5;5;;;;;;;37.64;34.0332;941.4192;;;;
2022/07/24 09:05:17;;;;;;;5.4;4.9;;;;;;;39.02;30.08301;941.3747;;;;
2022/07/24 09:07:43;;;;;;;5.5;4.8;;;;;;;38.27;31.43066;941.3684;;;;
2022/07/24 09:10:17;;;;;;;6.6;5.5;;;;;;;37.43;32.36914;941.3083;;;;
2022/07/24 09:12:45;;;;;;;6.4;5.8;;;;;;;35.77;35.9248;941.2292;;;;
2022/07/24 09:15:14;;;;;;;5.9;5.4;;;;;;;35.48;36.02246;941.2975;;;;
2022/07/24 09:17:39;;;;;;;5.7;5.2;;;;;;;37.59;32.14941;941.2553;;;;
2022/07/24 09:20:05;;;;;;;5.9;5.3;;;;;;;36.75;34.66992;941.2322;;;;
2022/07/24 09:22:30;;;;;;;5.9;5.3;;;;;;;37;33.30762;941.2454;;;;
2022/07/24 09:24:58;;;;;;;5.9;5.4;;;;;;;37.22;34.79004;941.217;;;;
2022/07/24 09:27:23;;;;;;;6;5.4;;;;;;;36.78;34.11523;941.2511;;;;
2022/07/24 09:29:50;;;;;;;6.1;5.5;;;;;;;37.38;33.29883;941.2483;;;;
2022/07/24 09:32:15;;;;;;;5.9;5.4;;;;;;;37.61;32.76953;941.171;;;;
2022/07/24 09:34:40;;;;;;;5.9;5.4;;;;;;;37.63;33.07422;941.1247;;;;
2022/07/24 09:37:05;;;;;;;6.3;5.7;;;;;;;37.08;34.47656;941.142;;;;
2022/07/24 09:39:33;;;;;;;5.7;5.2;;;;;;;35.97;37.42773;941.088;;;;
2022/07/24 09:41:58;;;;;;;6.2;5.6;;;;;;;36.28;37.65918;941.0938;;;;
2022/07/24 09:44:29;;;;;;;6;5.4;;;;;;;35.99;36.05078;941.0569;;;;
2022/07/24 09:46:54;;;;;;;6;5.5;;;;;;;36.23;35.82813;941.0691;;;;
2022/07/24 09:49:22;;;;;;;6.4;5.8;;;;;;;35.03;37.0127;941.0175;;;;
2022/07/24 09:51:49;;;;;;;6.5;5.7;;;;;;;33.74;41.57617;941.0369;;;;
2022/07/24 09:54:17;;;;;;;6.5;5.8;;;;;;;34.56;39.22852;940.956;;;;
2022/07/24 09:56:47;;;;;;;6.3;5.5;;;;;;;33.52;43.52832;940.9282;;;;
2022/07/24 09:59:16;;;;;;;7.2;6.3;;;;;;;33.87;41.74414;940.9604;;;;
2022/07/24 10:01:41;;;;;;;5.9;5.4;;;;;;;33.2;39.97754;940.9511;;;;
2022/07/24 10:04:10;;;;;;;6.5;5.8;;;;;;;33.33;40.46973;940.9114;;;;
2022/07/24 10:06:35;;;;;;;6.1;5.5;;;;;;;34.72;39.31445;940.9182;;;;
2022/07/24 10:09:01;;;;;;;5.9;5.3;;;;;;;35.06;37.29297;940.8897;;;;
2022/07/24 10:11:28;;;;;;;7.3;5.7;;;;;;;35.05;37.19531;940.8363;;;;
2022/07/24 10:13:53;;;;;;;6.2;5.6;;;;;;;34.43;40.43457;940.8483;;;;
2022/07/24 10:16:26;;;;;;;6.4;5.5;;;;;;;34.83;37.3584;940.7942;;;;
2022/07/24 10:18:51;;;;;;;5.9;5.4;;;;;;;35.5;36.27832;940.8099;;;;
2022/07/24 10:21:19;;;;;;;6.1;5.6;;;;;;;34.63;38.43945;940.7544;;;;
2022/07/24 10:23:47;;;;;;;6.2;5.6;;;;;;;34.46;38.60547;940.7878;;;;
2022/07/24 10:26:13;;;;;;;7.2;5.9;;;;;;;35.13;38.43262;940.8068;;;;
2022/07/24 10:28:39;;;;;;;6.4;5.8;;;;;;;35.71;35.24414;940.8151;;;;
2022/07/24 10:31:03;;;;;;;6.8;6.2;;;;;;;35.65;36.30176;940.7451;;;;
2022/07/24 10:33:28;;;;;;;6.7;6;;;;;;;35.43;36.61133;940.6781;;;;
2022/07/24 10:35:54;;;;;;;9.2;5.8;;;;;;;34.42;39.9873;940.7074;;;;
2022/07/24 10:38:19;;;;;;;8.8;6.9;;;;;;;34.13;40.33496;940.769;;;;
2022/07/24 10:40:48;;;;;;;6.5;5.9;;;;;;;33.32;40.55273;940.7084;;;;
2022/07/24 10:43:16;;;;;;;7.4;6.7;;;;;;;33.49;40.01465;940.7032;;;;
2022/07/24 10:45:41;;;;;;;9.5;7.4;;;;;;;33.8;39.21094;940.6756;;;;
2022/07/24 10:48:08;;;;;;;7.7;6.5;;;;;;;33.89;40.67578;940.6492;;;;
2022/07/24 10:50:33;;;;;;;7.8;6.1;;;;;;;34.1;37.88867;940.6261;;;;
2022/07/24 10:53:00;;;;;;;7.5;6.7;;;;;;;34.26;39.08301;940.5599;;;;
2022/07/24 10:55:26;;;;;;;7.2;6.4;;;;;;;33.98;39.28809;940.5561;;;;
2022/07/24 10:57:50;;;;;;;7.3;6.6;;;;;;;34.07;38.56055;940.5701;;;;
2022/07/24 11:00:16;;;;;;;10.8;6.3;;;;;;;33.73;39.56641;940.6239;;;;
2022/07/24 11:02:44;;;;;;;7;5.9;;;;;;;32.7;42.60938;940.5612;;;;
2022/07/24 11:05:09;;;;;;;8.5;6.5;;;;;;;32.17;43.32813;940.5732;;;;
2022/07/24 11:07:34;;;;;;;7.4;6.7;;;;;;;32.3;43.20703;940.6013;;;;
2022/07/24 11:09:59;;;;;;;6.3;5.7;;;;;;;32.03;43.60156;940.4515;;;;
2022/07/24 11:12:25;;;;;;;8.4;6.2;;;;;;;32.22;41.88184;940.6042;;;;
2022/07/24 11:14:50;;;;;;;7;6;;;;;;;32.63;43.23926;940.5552;;;;
2022/07/24 11:17:15;;;;;;;6.8;6.1;;;;;;;32.15;43.66113;940.5179;;;;
2022/07/24 11:19:56;;;;;;;7.8;5.9;;;;;;;31.9;43.99707;940.4975;;;;
2022/07/24 11:22:11;;;;;;;7.3;6.6;;;;;;;32.19;45.00781;940.5737;;;;
2022/07/24 11:24:35;;;;;;;7.6;5.9;;;;;;;31.96;42.65918;940.4286;;;;
2022/07/24 11:27:00;;;;;;;6.9;6.1;;;;;;;31.11;46.79004;940.3948;;;;
2022/07/24 11:29:27;;;;;;;7.4;6.2;;;;;;;31.29;44.76367;940.3585;;;;
2022/07/24 11:31:53;;;;;;;6.4;5.6;;;;;;;31.53;43.49316;940.395;;;;
2022/07/24 11:34:18;;;;;;;6.5;5.9;;;;;;;31.53;44.8584;940.3818;;;;
2022/07/24 11:36:45;;;;;;;6.8;5.7;;;;;;;31.85;43.22559;940.3962;;;;
2022/07/24 11:39:10;;;;;;;6.8;5.7;;;;;;;30.74;47.90039;940.4095;;;;
2022/07/24 11:41:35;;;;;;;6.8;6.1;;;;;;;30.17;48.71094;940.3722;;;;
2022/07/24 11:44:05;;;;;;;7.3;6.3;;;;;;;30.28;48.07715;940.3499;;;;
2022/07/24 11:46:35;;;;;;;6.4;5.8;;;;;;;30.26;47.93164;940.3013;;;;
2022/07/24 11:48:59;;;;;;;7.1;5.9;;;;;;;30.07;47.23242;940.2561;;;;
2022/07/24 11:51:27;;;;;;;7.2;6.1;;;;;;;29.83;46.57617;940.2761;;;;
2022/07/24 11:53:52;;;;;;;6.5;5.9;;;;;;;29.99;47.18848;940.2653;;;;
2022/07/24 11:56:17;;;;;;;6.7;6;;;;;;;30.06;51.89648;940.1855;;;;
2022/07/24 11:58:46;;;;;;;6.9;6.2;;;;;;;30.39;46.72949;940.1691;;;;
2022/07/24 12:01:11;;;;;;;6.4;5.6;;;;;;;30.57;45.81641;940.2209;;;;
2022/07/24 12:03:36;;;;;;;6.8;6;;;;;;;30.81;44.77637;940.2156;;;;
2022/07/24 12:06:04;;;;;;;6.3;5.7;;;;;;;31.07;43.19824;940.1728;;;;
2022/07/24 12:08:28;;;;;;;6.6;5.7;;;;;;;31.17;43.375;940.1399;;;;
2022/07/24 12:10:53;;;;;;;7;6.1;;;;;;;31.22;43.87109;940.1423;;;;
2022/07/24 12:13:19;;;;;;;7.1;6.4;;;;;;;31.2;43.23438;940.152;;;;
2022/07/24 12:15:54;;;;;;;6.3;5.7;;;;;;;30.72;45.69824;940.1273;;;;
2022/07/24 12:18:19;;;;;;;7.9;6.2;;;;;;;30.93;43.0293;940.0538;;;;
2022/07/24 12:20:45;;;;;;;6.6;5.9;;;;;;;30.63;44.79395;939.9949;;;;
2022/07/24 12:23:10;;;;;;;6.8;6.1;;;;;;;30.82;43.46191;940.0258;;;;
2022/07/24 12:25:36;;;;;;;6.6;5.5;;;;;;;30.98;43.77637;940.0458;;;;
2022/07/24 12:28:01;;;;;;;7.4;6.2;;;;;;;31.06;43.10254;939.9659;;;;
2022/07/24 12:30:48;;;;;;;6;5.4;;;;;;;30.75;45.29492;939.9743;;;;
2022/07/24 12:33:13;;;;;;;8.3;6.1;;;;;;;30.87;43.32324;939.9266;;;;
2022/07/24 12:35:39;;;;;;;7.7;5.6;;;;;;;31;43.2998;939.9194;;;;
2022/07/24 12:38:04;;;;;;;7;6.1;;;;;;;31.29;42.7168;939.8794;;;;
2022/07/24 12:40:30;;;;;;;6.4;5.8;;;;;;;31.31;42.37207;939.9132;;;;
2022/07/24 12:42:55;;;;;;;6.1;5.5;;;;;;;30.86;46.46582;939.9092;;;;
2022/07/24 12:45:25;;;;;;;6.6;6;;;;;;;30.17;45.5957;939.8208;;;;
2022/07/24 12:47:54;;;;;;;6.3;5.7;;;;;;;30.22;45.89844;939.8862;;;;
2022/07/24 12:50:19;;;;;;;6.6;5.9;;;;;;;30.44;44.32129;939.8186;;;;
2022/07/24 12:52:45;;;;;;;6.4;5.8;;;;;;;30.79;44.57031;939.8597;;;;
2022/07/24 12:55:10;;;;;;;7.4;6.5;;;;;;;30.98;41.9707;939.777;;;;
2022/07/24 12:57:38;;;;;;;7.3;5.6;;;;;;;31.3;41.91602;939.7634;;;;
2022/07/24 13:00:02;;;;;;;7.1;5.8;;;;;;;31.16;43.46973;939.7899;;;;
2022/07/24 13:02:29;;;;;;;7.4;5.9;;;;;;;31.31;42.82715;939.7855;;;;
2022/07/24 13:04:54;;;;;;;6.6;5.9;;;;;;;30.85;43.5;939.7523;;;;
2022/07/24 13:07:19;;;;;;;7.2;6.2;;;;;;;31.05;41.84473;939.7202;;;;
2022/07/24 13:09:44;;;;;;;6.3;5.8;;;;;;;31.15;42.24902;939.7516;;;;
2022/07/24 13:12:13;;;;;;;7.2;5.6;;;;;;;31.02;42.7041;939.6903;;;;
2022/07/24 13:14:43;;;;;;;10.3;6;;;;;;;30.84;42.81836;939.6474;;;;
2022/07/24 13:17:09;;;;;;;6;5.4;;;;;;;30.89;43.15723;939.6219;;;;
2022/07/24 13:19:33;;;;;;;6.6;5.9;;;;;;;30.96;42.60254;939.6013;;;;
2022/07/24 13:22:00;;;;;;;7.5;5.7;;;;;;;31.2;41.65527;939.5399;;;;
2022/07/24 13:24:25;;;;;;;6.8;6.1;;;;;;;30.99;43.58496;939.6068;;;;
2022/07/24 13:26:54;;;;;;;6.5;5.9;;;;;;;31.08;42.91211;939.5364;;;;
2022/07/24 13:29:20;;;;;;;6.6;6;;;;;;;31.22;42.66211;939.5215;;;;
2022/07/24 13:31:47;;;;;;;8.6;6.3;;;;;;;31.36;40.72461;939.5133;;;;
2022/07/24 13:34:12;;;;;;;8;5.8;;;;;;;31.33;42.34961;939.5079;;;;
2022/07/24 13:36:38;;;;;;;7.4;6.1;;;;;;;31.51;42.13867;939.5402;;;;
2022/07/24 13:39:03;;;;;;;7;6.1;;;;;;;31.54;40.26172;939.4749;;;;
2022/07/24 13:41:30;;;;;;;8.1;6;;;;;;;31.5;40.6543;939.4895;;;;
2022/07/24 13:43:55;;;;;;;7.1;6.1;;;;;;;31.47;40.79492;939.4857;;;;
2022/07/24 13:46:20;;;;;;;9.9;6.1;;;;;;;31.5;40.91699;939.4931;;;;
2022/07/24 13:48:48;;;;;;;7;6.3;;;;;;;31.38;41.12207;939.421;;;;
2022/07/24 13:51:12;;;;;;;6.7;6.1;;;;;;;30.98;45.47363;939.3726;;;;
2022/07/24 13:53:40;;;;;;;6.6;5.9;;;;;;;30.89;44.34082;939.3298;;;;
2022/07/24 13:56:05;;;;;;;5.9;5.4;;;;;;;30.88;43.88672;939.3163;;;;
2022/07/24 13:58:33;;;;;;;6.2;5.6;;;;;;;31.11;42.19824;939.2625;;;;
2022/07/24 14:00:56;;;;;;;7.2;5.6;;;;;;;31.24;42.36523;939.2335;;;;
2022/07/24 14:03:22;;;;;;;6.9;6.2;;;;;;;31.21;42.49414;939.2978;;;;
2022/07/24 14:05:47;;;;;;;6.4;5.7;;;;;;;31.03;43.42188;939.2283;;;;
2022/07/24 14:08:15;;;;;;;7.2;5.9;;;;;;;30.91;44.25977;939.2241;;;;
2022/07/24 14:10:40;;;;;;;7;6.1;;;;;;;30.91;43.23145;939.2159;;;;
2022/07/24 14:13:06;;;;;;;6.4;5.8;;;;;;;30.67;45.03613;939.1786;;;;
2022/07/24 14:15:34;;;;;;;6.4;5.8;;;;;;;30.39;44.69922;939.1697;;;;
2022/07/24 14:18:00;;;;;;;7.7;6;;;;;;;30.26;45.44922;939.1316;;;;
2022/07/24 14:20:25;;;;;;;6.7;6.1;;;;;;;30.45;43.15137;939.1082;;;;
2022/07/24 14:22:51;;;;;;;7.1;5.7;;;;;;;30.72;43.03418;939.041;;;;
2022/07/24 14:25:16;;;;;;;6.7;5.9;;;;;;;30.75;43.01172;939.0879;;;;
2022/07/24 14:27:42;;;;;;;6.9;6.2;;;;;;;30.95;41.85938;939.0818;;;;
2022/07/24 14:30:08;;;;;;;6.6;6;;;;;;;30.8;42.96973;939.037;;;;
2022/07/24 14:32:35;;;;;;;7;6.3;;;;;;;30.63;43.70605;939.0337;;;;
2022/07/24 14:35:00;;;;;;;6.5;5.9;;;;;;;30.79;42;939.0528;;;;
2022/07/24 14:37:26;;;;;;;6.7;6.1;;;;;;;30.82;42.39746;938.9942;;;;
2022/07/24 14:39:51;;;;;;;6.8;5.6;;;;;;;30.52;44.20898;939.0353;;;;
2022/07/24 14:42:20;;;;;;;6.6;5.8;;;;;;;30.55;44.42773;938.9327;;;;
2022/07/24 14:44:45;;;;;;;7.3;6.3;;;;;;;30.5;44.43359;938.9799;;;;
2022/07/24 14:47:11;;;;;;;7.6;6.1;;;;;;;30.33;45.64746;938.9303;;;;
2022/07/24 14:49:36;;;;;;;7.6;5.9;;;;;;;30.19;45.99219;938.9551;;;;
2022/07/24 14:52:02;;;;;;;6.9;5.9;;;;;;;30.22;46.32813;938.9666;;;;
2022/07/24 14:54:27;;;;;;;6.2;5.6;;;;;;;29.91;46.72559;938.8871;;;;
2022/07/24 14:56:54;;;;;;;6.9;6.1;;;;;;;29.87;47.10352;938.8616;;;;
2022/07/24 14:59:19;;;;;;;7;6;;;;;;;30.02;43.49219;938.8979;;;;
2022/07/24 15:01:44;;;;;;;6.7;6.1;;;;;;;30.21;45.16895;938.9403;;;;
2022/07/24 15:04:11;;;;;;;6.3;5.7;;;;;;;30.29;44.67676;938.8909;;;;
2022/07/24 15:06:36;;;;;;;6.6;5.9;;;;;;;30.23;44.34766;938.9314;;;;
2022/07/24 15:09:02;;;;;;;7.4;6.1;;;;;;;30.15;45.33008;938.8741;;;;
2022/07/24 15:11:27;;;;;;;6.5;5.7;;;;;;;29.89;43.59961;938.856;;;;
2022/07/24 15:13:54;;;;;;;7.1;6.4;;;;;;;29.9;46.42676;938.878;;;;
2022/07/24 15:16:23;;;;;;;6;5.5;;;;;;;30.07;44.79785;938.8393;;;;
2022/07/24 15:18:50;;;;;;;6.3;5.7;;;;;;;29.99;43.64453;938.8444;;;;
2022/07/24 15:21:15;;;;;;;6.4;5.8;;;;;;;30.02;44.95996;938.772;;;;
2022/07/24 15:23:42;;;;;;;7.2;6.1;;;;;;;29.79;46.18945;938.767;;;;
2022/07/24 15:26:07;;;;;;;6.9;6.1;;;;;;;29.81;44.96289;938.7252;;;;
2022/07/24 15:28:34;;;;;;;6.7;5.9;;;;;;;29.87;44.6582;938.7209;;;;
2022/07/24 15:30:59;;;;;;;6.4;5.8;;;;;;;29.91;43.69629;938.7275;;;;
2022/07/24 15:33:25;;;;;;;6.5;5.9;;;;;;;29.82;44.9873;938.6872;;;;
2022/07/24 15:35:51;;;;;;;6.6;6;;;;;;;29.92;45.80859;938.714;;;;